sensor_id;sensor_type;location;lat;lon;timestamp;P1;durP1;ratioP1;P2;durP2;ratioP2
13289;SDS011;6713;50.954;5.310;2023-07-22T00:01:58;4.57;;;3.70;;
13289;SDS011;6713;50.954;5.310;2023-07-22T00:04:25;7.97;;;4.40;;
13289;SDS011;6713;50.954;5.310;2023-07-22T00:06:52;4.67;;;3.83;;
13289;SDS011;6713;50.954;5.310;2023-07-22T00:09:18;4.40;;;3.77;;
13289;SDS011;6713;50.954;5.310;2023-07-22T00:11:45;5.63;;;4.47;;
13289;SDS011;6713;50.954;5.310;2023-07-22T00:14:13;9.17;;;4.47;;
13289;SDS011;6713;50.954;5.310;2023-07-22T00:16:39;4.50;;;3.93;;
13289;SDS011;6713;50.954;5.310;2023-07-22T00:19:05;7.10;;;6.03;;
13289;SDS011;6713;50.954;5.310;2023-07-22T00:21:32;8.37;;;6.30;;
13289;SDS011;6713;50.954;5.310;2023-07-22T00:23:59;7.33;;;5.83;;
13289;SDS011;6713;50.954;5.310;2023-07-22T00:26:26;8.40;;;5.73;;
13289;SDS011;6713;50.954;5.310;2023-07-22T00:28:53;6.60;;;5.60;;
13289;SDS011;6713;50.954;5.310;2023-07-22T00:31:20;11.13;;;6.43;;
13289;SDS011;6713;50.954;5.310;2023-07-22T00:33:47;7.83;;;5.83;;
13289;SDS011;6713;50.954;5.310;2023-07-22T00:36:13;6.83;;;5.30;;
13289;SDS011;6713;50.954;5.310;2023-07-22T00:38:39;6.97;;;5.03;;
13289;SDS011;6713;50.954;5.310;2023-07-22T00:41:06;6.30;;;4.97;;
13289;SDS011;6713;50.954;5.310;2023-07-22T00:43:32;7.73;;;5.33;;
13289;SDS011;6713;50.954;5.310;2023-07-22T00:45:58;6.47;;;5.13;;
13289;SDS011;6713;50.954;5.310;2023-07-22T00:48:26;6.37;;;4.87;;
13289;SDS011;6713;50.954;5.310;2023-07-22T00:50:53;5.70;;;4.33;;
13289;SDS011;6713;50.954;5.310;2023-07-22T00:53:19;5.83;;;4.43;;
13289;SDS011;6713;50.954;5.310;2023-07-22T00:55:46;5.53;;;4.60;;
13289;SDS011;6713;50.954;5.310;2023-07-22T00:58:12;4.43;;;3.80;;
13289;SDS011;6713;50.954;5.310;2023-07-22T01:00:38;6.23;;;4.93;;
13289;SDS011;6713;50.954;5.310;2023-07-22T01:03:05;9.20;;;5.60;;
13289;SDS011;6713;50.954;5.310;2023-07-22T01:05:34;5.53;;;4.50;;
13289;SDS011;6713;50.954;5.310;2023-07-22T01:08:01;7.27;;;4.80;;
13289;SDS011;6713;50.954;5.310;2023-07-22T01:10:29;5.53;;;4.13;;
13289;SDS011;6713;50.954;5.310;2023-07-22T01:12:55;4.80;;;3.90;;
13289;SDS011;6713;50.954;5.310;2023-07-22T01:15:22;5.73;;;4.70;;
13289;SDS011;6713;50.954;5.310;2023-07-22T01:17:49;5.53;;;4.50;;
13289;SDS011;6713;50.954;5.310;2023-07-22T01:20:15;5.37;;;4.87;;
13289;SDS011;6713;50.954;5.310;2023-07-22T01:22:47;6.00;;;4.87;;
13289;SDS011;6713;50.954;5.310;2023-07-22T01:25:15;6.83;;;5.13;;
13289;SDS011;6713;50.954;5.310;2023-07-22T01:27:42;6.03;;;5.17;;
13289;SDS011;6713;50.954;5.310;2023-07-22T01:30:09;5.83;;;4.37;;
13289;SDS011;6713;50.954;5.310;2023-07-22T01:32:36;5.73;;;4.37;;
13289;SDS011;6713;50.954;5.310;2023-07-22T01:35:04;5.20;;;4.03;;
13289;SDS011;6713;50.954;5.310;2023-07-22T01:37:31;6.53;;;4.93;;
13289;SDS011;6713;50.954;5.310;2023-07-22T01:39:59;5.80;;;4.90;;
13289;SDS011;6713;50.954;5.310;2023-07-22T01:42:25;7.53;;;5.13;;
13289;SDS011;6713;50.954;5.310;2023-07-22T01:44:52;5.17;;;4.40;;
13289;SDS011;6713;50.954;5.310;2023-07-22T01:47:19;4.17;;;3.77;;
13289;SDS011;6713;50.954;5.310;2023-07-22T01:49:46;6.17;;;4.67;;
13289;SDS011;6713;50.954;5.310;2023-07-22T01:52:12;7.67;;;4.87;;
13289;SDS011;6713;50.954;5.310;2023-07-22T01:54:38;6.33;;;4.30;;
13289;SDS011;6713;50.954;5.310;2023-07-22T01:57:06;5.33;;;3.80;;
13289;SDS011;6713;50.954;5.310;2023-07-22T01:59:33;5.43;;;4.60;;
13289;SDS011;6713;50.954;5.310;2023-07-22T02:01:59;6.90;;;4.13;;
13289;SDS011;6713;50.954;5.310;2023-07-22T02:04:25;5.00;;;4.50;;
13289;SDS011;6713;50.954;5.310;2023-07-22T02:06:52;6.70;;;5.37;;
13289;SDS011;6713;50.954;5.310;2023-07-22T02:09:18;6.60;;;4.07;;
13289;SDS011;6713;50.954;5.310;2023-07-22T02:11:45;5.60;;;4.50;;
13289;SDS011;6713;50.954;5.310;2023-07-22T02:14:12;5.13;;;4.63;;
13289;SDS011;6713;50.954;5.310;2023-07-22T02:16:39;6.57;;;5.03;;
13289;SDS011;6713;50.954;5.310;2023-07-22T02:19:05;5.00;;;4.10;;
13289;SDS011;6713;50.954;5.310;2023-07-22T02:21:31;5.03;;;4.33;;
13289;SDS011;6713;50.954;5.310;2023-07-22T02:23:58;5.00;;;3.87;;
13289;SDS011;6713;50.954;5.310;2023-07-22T02:26:24;6.40;;;4.43;;
13289;SDS011;6713;50.954;5.310;2023-07-22T02:28:50;4.97;;;4.33;;
13289;SDS011;6713;50.954;5.310;2023-07-22T02:31:18;6.80;;;5.33;;
13289;SDS011;6713;50.954;5.310;2023-07-22T02:33:47;5.93;;;4.33;;
13289;SDS011;6713;50.954;5.310;2023-07-22T02:36:13;5.53;;;4.10;;
13289;SDS011;6713;50.954;5.310;2023-07-22T02:38:39;5.27;;;3.87;;
13289;SDS011;6713;50.954;5.310;2023-07-22T02:41:06;6.07;;;4.57;;
13289;SDS011;6713;50.954;5.310;2023-07-22T02:43:33;6.70;;;4.63;;
13289;SDS011;6713;50.954;5.310;2023-07-22T02:45:59;6.53;;;3.93;;
13289;SDS011;6713;50.954;5.310;2023-07-22T02:48:27;5.70;;;4.60;;
13289;SDS011;6713;50.954;5.310;2023-07-22T02:50:53;5.77;;;4.50;;
13289;SDS011;6713;50.954;5.310;2023-07-22T02:53:20;6.50;;;4.60;;
13289;SDS011;6713;50.954;5.310;2023-07-22T02:55:46;6.73;;;4.40;;
13289;SDS011;6713;50.954;5.310;2023-07-22T02:58:13;5.27;;;4.77;;
13289;SDS011;6713;50.954;5.310;2023-07-22T03:00:39;5.37;;;4.57;;
13289;SDS011;6713;50.954;5.310;2023-07-22T03:03:06;7.77;;;4.87;;
13289;SDS011;6713;50.954;5.310;2023-07-22T03:05:34;5.67;;;4.73;;
13289;SDS011;6713;50.954;5.310;2023-07-22T03:08:01;6.90;;;4.90;;
13289;SDS011;6713;50.954;5.310;2023-07-22T03:10:27;8.93;;;6.17;;
13289;SDS011;6713;50.954;5.310;2023-07-22T03:12:54;6.40;;;4.90;;
13289;SDS011;6713;50.954;5.310;2023-07-22T03:15:21;6.80;;;5.20;;
13289;SDS011;6713;50.954;5.310;2023-07-22T03:17:47;6.73;;;4.23;;
13289;SDS011;6713;50.954;5.310;2023-07-22T03:20:14;6.87;;;5.13;;
13289;SDS011;6713;50.954;5.310;2023-07-22T03:22:43;6.13;;;5.23;;
13289;SDS011;6713;50.954;5.310;2023-07-22T03:25:10;7.33;;;4.70;;
13289;SDS011;6713;50.954;5.310;2023-07-22T03:27:37;6.77;;;4.93;;
13289;SDS011;6713;50.954;5.310;2023-07-22T03:30:03;4.87;;;4.37;;
13289;SDS011;6713;50.954;5.310;2023-07-22T03:32:31;7.53;;;5.30;;
13289;SDS011;6713;50.954;5.310;2023-07-22T03:34:58;6.43;;;5.07;;
13289;SDS011;6713;50.954;5.310;2023-07-22T03:37:24;6.33;;;5.17;;
13289;SDS011;6713;50.954;5.310;2023-07-22T03:39:52;6.50;;;5.90;;
13289;SDS011;6713;50.954;5.310;2023-07-22T03:42:18;6.20;;;4.83;;
13289;SDS011;6713;50.954;5.310;2023-07-22T03:44:44;6.93;;;4.23;;
13289;SDS011;6713;50.954;5.310;2023-07-22T03:47:11;8.20;;;6.10;;
13289;SDS011;6713;50.954;5.310;2023-07-22T03:49:38;7.80;;;6.27;;
13289;SDS011;6713;50.954;5.310;2023-07-22T03:52:04;9.20;;;5.73;;
13289;SDS011;6713;50.954;5.310;2023-07-22T03:54:31;9.97;;;6.53;;
13289;SDS011;6713;50.954;5.310;2023-07-22T03:56:58;7.97;;;5.80;;
13289;SDS011;6713;50.954;5.310;2023-07-22T03:59:25;10.87;;;6.33;;
13289;SDS011;6713;50.954;5.310;2023-07-22T04:01:53;11.33;;;6.67;;
13289;SDS011;6713;50.954;5.310;2023-07-22T04:04:19;8.73;;;6.43;;
13289;SDS011;6713;50.954;5.310;2023-07-22T04:06:46;7.97;;;5.77;;
13289;SDS011;6713;50.954;5.310;2023-07-22T04:09:12;10.20;;;5.10;;
13289;SDS011;6713;50.954;5.310;2023-07-22T04:11:39;7.27;;;5.40;;
13289;SDS011;6713;50.954;5.310;2023-07-22T04:14:07;10.70;;;5.83;;
13289;SDS011;6713;50.954;5.310;2023-07-22T04:16:33;10.13;;;5.87;;
13289;SDS011;6713;50.954;5.310;2023-07-22T04:18:59;9.40;;;7.53;;
13289;SDS011;6713;50.954;5.310;2023-07-22T04:21:26;10.60;;;6.87;;
13289;SDS011;6713;50.954;5.310;2023-07-22T04:23:53;11.97;;;5.97;;
13289;SDS011;6713;50.954;5.310;2023-07-22T04:26:20;12.77;;;7.30;;
13289;SDS011;6713;50.954;5.310;2023-07-22T04:28:46;12.27;;;8.30;;
13289;SDS011;6713;50.954;5.310;2023-07-22T04:31:14;11.70;;;8.07;;
13289;SDS011;6713;50.954;5.310;2023-07-22T04:33:40;13.07;;;7.23;;
13289;SDS011;6713;50.954;5.310;2023-07-22T04:36:07;9.80;;;7.33;;
13289;SDS011;6713;50.954;5.310;2023-07-22T04:38:33;11.13;;;7.70;;
13289;SDS011;6713;50.954;5.310;2023-07-22T04:41:00;10.77;;;7.80;;
13289;SDS011;6713;50.954;5.310;2023-07-22T04:43:28;12.00;;;8.03;;
13289;SDS011;6713;50.954;5.310;2023-07-22T04:45:55;10.47;;;7.53;;
13289;SDS011;6713;50.954;5.310;2023-07-22T04:48:23;13.10;;;8.03;;
13289;SDS011;6713;50.954;5.310;2023-07-22T04:50:49;12.20;;;7.43;;
13289;SDS011;6713;50.954;5.310;2023-07-22T04:53:16;9.73;;;6.87;;
13289;SDS011;6713;50.954;5.310;2023-07-22T04:55:43;11.50;;;7.47;;
13289;SDS011;6713;50.954;5.310;2023-07-22T04:58:09;9.57;;;7.30;;
13289;SDS011;6713;50.954;5.310;2023-07-22T05:00:35;9.83;;;7.30;;
13289;SDS011;6713;50.954;5.310;2023-07-22T05:03:02;11.37;;;7.97;;
13289;SDS011;6713;50.954;5.310;2023-07-22T05:05:30;11.37;;;8.70;;
13289;SDS011;6713;50.954;5.310;2023-07-22T05:07:56;14.60;;;8.67;;
13289;SDS011;6713;50.954;5.310;2023-07-22T05:10:23;9.50;;;6.27;;
13289;SDS011;6713;50.954;5.310;2023-07-22T05:12:49;13.00;;;7.87;;
13289;SDS011;6713;50.954;5.310;2023-07-22T05:15:15;14.03;;;9.77;;
13289;SDS011;6713;50.954;5.310;2023-07-22T05:17:42;9.97;;;7.03;;
13289;SDS011;6713;50.954;5.310;2023-07-22T05:20:08;12.83;;;7.80;;
13289;SDS011;6713;50.954;5.310;2023-07-22T05:22:37;13.07;;;8.70;;
13289;SDS011;6713;50.954;5.310;2023-07-22T05:25:04;13.73;;;7.17;;
13289;SDS011;6713;50.954;5.310;2023-07-22T05:27:31;13.50;;;8.77;;
13289;SDS011;6713;50.954;5.310;2023-07-22T05:29:57;13.93;;;8.20;;
13289;SDS011;6713;50.954;5.310;2023-07-22T05:32:24;14.37;;;8.97;;
13289;SDS011;6713;50.954;5.310;2023-07-22T05:34:50;11.47;;;8.07;;
13289;SDS011;6713;50.954;5.310;2023-07-22T05:37:16;11.83;;;8.57;;
13289;SDS011;6713;50.954;5.310;2023-07-22T05:39:44;12.40;;;6.87;;
13289;SDS011;6713;50.954;5.310;2023-07-22T05:42:10;10.17;;;7.53;;
13289;SDS011;6713;50.954;5.310;2023-07-22T05:44:37;12.40;;;8.53;;
13289;SDS011;6713;50.954;5.310;2023-07-22T05:47:04;10.13;;;7.10;;
13289;SDS011;6713;50.954;5.310;2023-07-22T05:49:30;10.97;;;7.67;;
13289;SDS011;6713;50.954;5.310;2023-07-22T05:51:56;11.93;;;8.60;;
13289;SDS011;6713;50.954;5.310;2023-07-22T05:54:23;11.80;;;7.60;;
13289;SDS011;6713;50.954;5.310;2023-07-22T05:56:50;14.27;;;7.97;;
13289;SDS011;6713;50.954;5.310;2023-07-22T05:59:17;9.67;;;7.40;;
13289;SDS011;6713;50.954;5.310;2023-07-22T06:01:43;12.23;;;8.10;;
13289;SDS011;6713;50.954;5.310;2023-07-22T06:04:09;14.10;;;7.97;;
13289;SDS011;6713;50.954;5.310;2023-07-22T06:06:36;13.93;;;7.70;;
13289;SDS011;6713;50.954;5.310;2023-07-22T06:09:02;12.07;;;7.50;;
13289;SDS011;6713;50.954;5.310;2023-07-22T06:11:29;12.70;;;7.30;;
13289;SDS011;6713;50.954;5.310;2023-07-22T06:13:57;10.87;;;6.80;;
13289;SDS011;6713;50.954;5.310;2023-07-22T06:16:23;23.90;;;9.00;;
13289;SDS011;6713;50.954;5.310;2023-07-22T06:18:50;8.93;;;6.37;;
13289;SDS011;6713;50.954;5.310;2023-07-22T06:21:16;12.63;;;6.93;;
13289;SDS011;6713;50.954;5.310;2023-07-22T06:23:42;13.37;;;8.37;;
13289;SDS011;6713;50.954;5.310;2023-07-22T06:26:09;11.27;;;8.30;;
13289;SDS011;6713;50.954;5.310;2023-07-22T06:28:35;9.90;;;7.57;;
13289;SDS011;6713;50.954;5.310;2023-07-22T06:31:03;9.97;;;6.50;;
13289;SDS011;6713;50.954;5.310;2023-07-22T06:33:29;14.40;;;7.70;;
13289;SDS011;6713;50.954;5.310;2023-07-22T06:35:55;18.10;;;7.97;;
13289;SDS011;6713;50.954;5.310;2023-07-22T06:38:22;10.47;;;7.63;;
13289;SDS011;6713;50.954;5.310;2023-07-22T06:40:48;11.50;;;7.10;;
13289;SDS011;6713;50.954;5.310;2023-07-22T06:43:15;12.47;;;7.80;;
13289;SDS011;6713;50.954;5.310;2023-07-22T06:45:41;11.30;;;7.50;;
13289;SDS011;6713;50.954;5.310;2023-07-22T06:48:09;13.83;;;9.60;;
13289;SDS011;6713;50.954;5.310;2023-07-22T06:50:36;13.43;;;7.73;;
13289;SDS011;6713;50.954;5.310;2023-07-22T06:53:02;11.97;;;6.40;;
13289;SDS011;6713;50.954;5.310;2023-07-22T06:55:28;10.13;;;6.43;;
13289;SDS011;6713;50.954;5.310;2023-07-22T06:57:56;11.20;;;7.13;;
13289;SDS011;6713;50.954;5.310;2023-07-22T07:00:22;14.60;;;6.77;;
13289;SDS011;6713;50.954;5.310;2023-07-22T07:02:49;11.87;;;6.27;;
13289;SDS011;6713;50.954;5.310;2023-07-22T07:05:17;12.43;;;7.00;;
13289;SDS011;6713;50.954;5.310;2023-07-22T07:07:43;10.23;;;7.87;;
13289;SDS011;6713;50.954;5.310;2023-07-22T07:10:10;9.93;;;6.67;;
13289;SDS011;6713;50.954;5.310;2023-07-22T07:12:36;12.90;;;7.10;;
13289;SDS011;6713;50.954;5.310;2023-07-22T07:15:03;10.97;;;6.53;;
13289;SDS011;6713;50.954;5.310;2023-07-22T07:17:29;7.97;;;6.33;;
13289;SDS011;6713;50.954;5.310;2023-07-22T07:19:55;10.70;;;7.03;;
13289;SDS011;6713;50.954;5.310;2023-07-22T07:22:23;8.20;;;5.50;;
13289;SDS011;6713;50.954;5.310;2023-07-22T07:24:49;10.03;;;5.83;;
13289;SDS011;6713;50.954;5.310;2023-07-22T07:27:16;8.73;;;5.67;;
13289;SDS011;6713;50.954;5.310;2023-07-22T07:29:42;10.00;;;6.10;;
13289;SDS011;6713;50.954;5.310;2023-07-22T07:32:08;12.90;;;5.93;;
13289;SDS011;6713;50.954;5.310;2023-07-22T07:34:35;7.37;;;5.33;;
13289;SDS011;6713;50.954;5.310;2023-07-22T07:37:01;10.73;;;5.50;;
13289;SDS011;6713;50.954;5.310;2023-07-22T07:39:29;8.30;;;6.17;;
13289;SDS011;6713;50.954;5.310;2023-07-22T07:41:55;11.20;;;6.00;;
13289;SDS011;6713;50.954;5.310;2023-07-22T07:44:22;7.23;;;5.00;;
13289;SDS011;6713;50.954;5.310;2023-07-22T07:46:48;8.60;;;5.80;;
13289;SDS011;6713;50.954;5.310;2023-07-22T07:49:15;8.30;;;5.60;;
13289;SDS011;6713;50.954;5.310;2023-07-22T07:51:41;13.53;;;5.43;;
13289;SDS011;6713;50.954;5.310;2023-07-22T07:54:08;11.37;;;5.30;;
13289;SDS011;6713;50.954;5.310;2023-07-22T07:56:36;7.03;;;5.27;;
13289;SDS011;6713;50.954;5.310;2023-07-22T07:59:02;8.43;;;4.50;;
13289;SDS011;6713;50.954;5.310;2023-07-22T08:01:30;7.83;;;5.77;;
13289;SDS011;6713;50.954;5.310;2023-07-22T08:03:56;6.40;;;4.80;;
13289;SDS011;6713;50.954;5.310;2023-07-22T08:06:23;8.13;;;5.10;;
13289;SDS011;6713;50.954;5.310;2023-07-22T08:08:49;7.47;;;4.30;;
13289;SDS011;6713;50.954;5.310;2023-07-22T08:11:15;7.07;;;4.63;;
13289;SDS011;6713;50.954;5.310;2023-07-22T08:13:43;6.57;;;4.00;;
13289;SDS011;6713;50.954;5.310;2023-07-22T08:16:10;5.80;;;3.93;;
13289;SDS011;6713;50.954;5.310;2023-07-22T08:18:37;7.57;;;4.70;;
13289;SDS011;6713;50.954;5.310;2023-07-22T08:21:04;7.23;;;4.30;;
13289;SDS011;6713;50.954;5.310;2023-07-22T08:23:31;5.07;;;3.47;;
13289;SDS011;6713;50.954;5.310;2023-07-22T08:25:58;5.07;;;3.93;;
13289;SDS011;6713;50.954;5.310;2023-07-22T08:28:24;5.90;;;3.70;;
13289;SDS011;6713;50.954;5.310;2023-07-22T08:30:53;4.83;;;3.80;;
13289;SDS011;6713;50.954;5.310;2023-07-22T08:33:19;5.63;;;3.43;;
13289;SDS011;6713;50.954;5.310;2023-07-22T08:35:46;6.70;;;3.43;;
13289;SDS011;6713;50.954;5.310;2023-07-22T08:38:14;9.13;;;3.70;;
13289;SDS011;6713;50.954;5.310;2023-07-22T08:40:40;5.93;;;3.40;;
13289;SDS011;6713;50.954;5.310;2023-07-22T08:43:07;5.60;;;3.30;;
13289;SDS011;6713;50.954;5.310;2023-07-22T08:45:34;8.23;;;4.60;;
13289;SDS011;6713;50.954;5.310;2023-07-22T08:48:04;4.60;;;2.80;;
13289;SDS011;6713;50.954;5.310;2023-07-22T08:50:34;5.83;;;3.07;;
13289;SDS011;6713;50.954;5.310;2023-07-22T08:53:00;4.93;;;3.37;;
13289;SDS011;6713;50.954;5.310;2023-07-22T08:55:27;6.30;;;3.00;;
13289;SDS011;6713;50.954;5.310;2023-07-22T08:57:53;5.73;;;3.43;;
13289;SDS011;6713;50.954;5.310;2023-07-22T09:00:21;6.33;;;3.03;;
13289;SDS011;6713;50.954;5.310;2023-07-22T09:02:47;4.83;;;2.90;;
13289;SDS011;6713;50.954;5.310;2023-07-22T09:05:16;3.47;;;2.47;;
13289;SDS011;6713;50.954;5.310;2023-07-22T09:07:42;2.77;;;2.23;;
13289;SDS011;6713;50.954;5.310;2023-07-22T09:10:09;3.90;;;2.87;;
13289;SDS011;6713;50.954;5.310;2023-07-22T09:12:35;6.47;;;3.07;;
13289;SDS011;6713;50.954;5.310;2023-07-22T09:15:06;5.87;;;2.83;;
13289;SDS011;6713;50.954;5.310;2023-07-22T09:17:32;6.43;;;4.40;;
13289;SDS011;6713;50.954;5.310;2023-07-22T09:19:59;4.77;;;2.60;;
13289;SDS011;6713;50.954;5.310;2023-07-22T09:22:26;5.47;;;2.10;;
13289;SDS011;6713;50.954;5.310;2023-07-22T09:24:53;3.37;;;2.00;;
13289;SDS011;6713;50.954;5.310;2023-07-22T09:27:29;2.60;;;2.10;;
13289;SDS011;6713;50.954;5.310;2023-07-22T09:29:58;3.30;;;2.00;;
13289;SDS011;6713;50.954;5.310;2023-07-22T09:32:33;3.43;;;2.40;;
13289;SDS011;6713;50.954;5.310;2023-07-22T09:35:00;3.27;;;1.97;;
13289;SDS011;6713;50.954;5.310;2023-07-22T09:37:34;3.73;;;1.90;;
13289;SDS011;6713;50.954;5.310;2023-07-22T09:40:02;4.40;;;1.97;;
13289;SDS011;6713;50.954;5.310;2023-07-22T09:42:28;3.00;;;1.63;;
13289;SDS011;6713;50.954;5.310;2023-07-22T09:44:55;3.23;;;2.00;;
13289;SDS011;6713;50.954;5.310;2023-07-22T09:47:21;3.43;;;2.07;;
13289;SDS011;6713;50.954;5.310;2023-07-22T09:49:47;3.53;;;2.07;;
13289;SDS011;6713;50.954;5.310;2023-07-22T09:52:15;3.63;;;1.70;;
13289;SDS011;6713;50.954;5.310;2023-07-22T09:54:49;3.00;;;1.73;;
13289;SDS011;6713;50.954;5.310;2023-07-22T09:57:15;1.87;;;1.30;;
13289;SDS011;6713;50.954;5.310;2023-07-22T09:59:42;4.00;;;1.33;;
13289;SDS011;6713;50.954;5.310;2023-07-22T10:02:09;3.57;;;1.50;;
13289;SDS011;6713;50.954;5.310;2023-07-22T10:04:37;1.80;;;1.43;;
13289;SDS011;6713;50.954;5.310;2023-07-22T10:07:05;2.87;;;1.37;;
13289;SDS011;6713;50.954;5.310;2023-07-22T10:09:33;5.07;;;1.70;;
13289;SDS011;6713;50.954;5.310;2023-07-22T10:12:01;3.80;;;1.53;;
13289;SDS011;6713;50.954;5.310;2023-07-22T10:14:28;4.10;;;1.70;;
13289;SDS011;6713;50.954;5.310;2023-07-22T10:16:55;1.87;;;1.20;;
13289;SDS011;6713;50.954;5.310;2023-07-22T10:19:21;2.10;;;1.67;;
13289;SDS011;6713;50.954;5.310;2023-07-22T10:21:50;2.93;;;1.07;;
13289;SDS011;6713;50.954;5.310;2023-07-22T10:24:17;2.03;;;1.40;;
13289;SDS011;6713;50.954;5.310;2023-07-22T10:26:44;2.53;;;1.40;;
13289;SDS011;6713;50.954;5.310;2023-07-22T10:29:17;3.03;;;1.53;;
13289;SDS011;6713;50.954;5.310;2023-07-22T10:31:44;2.30;;;1.37;;
13289;SDS011;6713;50.954;5.310;2023-07-22T10:34:10;3.27;;;1.70;;
13289;SDS011;6713;50.954;5.310;2023-07-22T10:36:37;5.03;;;1.37;;
13289;SDS011;6713;50.954;5.310;2023-07-22T10:39:03;2.93;;;1.30;;
13289;SDS011;6713;50.954;5.310;2023-07-22T10:41:31;1.97;;;1.00;;
13289;SDS011;6713;50.954;5.310;2023-07-22T10:43:58;2.97;;;1.37;;
13289;SDS011;6713;50.954;5.310;2023-07-22T10:46:34;1.43;;;1.20;;
13289;SDS011;6713;50.954;5.310;2023-07-22T10:49:07;3.07;;;1.07;;
13289;SDS011;6713;50.954;5.310;2023-07-22T10:51:35;2.17;;;1.23;;
13289;SDS011;6713;50.954;5.310;2023-07-22T10:54:02;1.40;;;1.10;;
13289;SDS011;6713;50.954;5.310;2023-07-22T10:56:29;1.92;;;1.35;;
13289;SDS011;6713;50.954;5.310;2023-07-22T10:58:59;1.63;;;1.08;;
13289;SDS011;6713;50.954;5.310;2023-07-22T11:01:30;1.38;;;1.20;;
13289;SDS011;6713;50.954;5.310;2023-07-22T11:04:11;3.20;;;1.33;;
13289;SDS011;6713;50.954;5.310;2023-07-22T11:06:38;3.80;;;1.20;;
13289;SDS011;6713;50.954;5.310;2023-07-22T11:09:05;1.80;;;1.40;;
13289;SDS011;6713;50.954;5.310;2023-07-22T11:11:35;1.80;;;1.35;;
13289;SDS011;6713;50.954;5.310;2023-07-22T11:14:12;2.33;;;1.23;;
13289;SDS011;6713;50.954;5.310;2023-07-22T11:16:38;2.97;;;1.27;;
13289;SDS011;6713;50.954;5.310;2023-07-22T11:19:05;2.28;;;1.33;;
13289;SDS011;6713;50.954;5.310;2023-07-22T11:21:32;2.35;;;1.60;;
13289;SDS011;6713;50.954;5.310;2023-07-22T11:23:59;3.13;;;1.60;;
13289;SDS011;6713;50.954;5.310;2023-07-22T11:26:25;2.45;;;1.40;;
13289;SDS011;6713;50.954;5.310;2023-07-22T11:28:51;1.20;;;1.10;;
13289;SDS011;6713;50.954;5.310;2023-07-22T11:31:18;1.73;;;1.30;;
13289;SDS011;6713;50.954;5.310;2023-07-22T11:33:44;2.88;;;1.58;;
13289;SDS011;6713;50.954;5.310;2023-07-22T11:36:12;3.13;;;1.35;;
13289;SDS011;6713;50.954;5.310;2023-07-22T11:38:40;2.15;;;1.48;;
13289;SDS011;6713;50.954;5.310;2023-07-22T11:41:06;3.42;;;1.48;;
13289;SDS011;6713;50.954;5.310;2023-07-22T11:43:34;1.95;;;1.40;;
13289;SDS011;6713;50.954;5.310;2023-07-22T11:46:00;3.60;;;1.52;;
13289;SDS011;6713;50.954;5.310;2023-07-22T11:48:27;1.10;;;1.00;;
13289;SDS011;6713;50.954;5.310;2023-07-22T11:50:55;2.03;;;1.50;;
13289;SDS011;6713;50.954;5.310;2023-07-22T11:53:25;2.13;;;1.25;;
13289;SDS011;6713;50.954;5.310;2023-07-22T11:55:54;1.00;;;0.90;;
13289;SDS011;6713;50.954;5.310;2023-07-22T11:58:23;2.55;;;1.52;;
13289;SDS011;6713;50.954;5.310;2023-07-22T12:01:01;3.15;;;1.10;;
13289;SDS011;6713;50.954;5.310;2023-07-22T12:03:30;1.60;;;1.10;;
13289;SDS011;6713;50.954;5.310;2023-07-22T12:05:59;1.52;;;1.05;;
13289;SDS011;6713;50.954;5.310;2023-07-22T12:08:26;1.45;;;1.10;;
13289;SDS011;6713;50.954;5.310;2023-07-22T12:10:57;1.35;;;1.15;;
13289;SDS011;6713;50.954;5.310;2023-07-22T12:13:23;1.30;;;1.20;;
13289;SDS011;6713;50.954;5.310;2023-07-22T12:15:58;3.05;;;1.27;;
13289;SDS011;6713;50.954;5.310;2023-07-22T12:18:25;1.42;;;0.85;;
13289;SDS011;6713;50.954;5.310;2023-07-22T12:20:51;2.03;;;1.20;;
13289;SDS011;6713;50.954;5.310;2023-07-22T12:23:18;1.48;;;0.95;;
13289;SDS011;6713;50.954;5.310;2023-07-22T12:25:46;1.13;;;1.02;;
13289;SDS011;6713;50.954;5.310;2023-07-22T12:28:14;1.10;;;1.00;;
13289;SDS011;6713;50.954;5.310;2023-07-22T12:30:40;2.13;;;1.00;;
13289;SDS011;6713;50.954;5.310;2023-07-22T12:33:06;1.83;;;1.05;;
13289;SDS011;6713;50.954;5.310;2023-07-22T12:35:33;1.67;;;0.85;;
13289;SDS011;6713;50.954;5.310;2023-07-22T12:37:59;1.88;;;0.90;;
13289;SDS011;6713;50.954;5.310;2023-07-22T12:40:25;1.90;;;1.30;;
13289;SDS011;6713;50.954;5.310;2023-07-22T12:42:52;1.20;;;1.00;;
13289;SDS011;6713;50.954;5.310;2023-07-22T12:45:19;1.20;;;1.10;;
13289;SDS011;6713;50.954;5.310;2023-07-22T12:47:46;1.15;;;0.93;;
13289;SDS011;6713;50.954;5.310;2023-07-22T12:50:13;1.27;;;1.15;;
13289;SDS011;6713;50.954;5.310;2023-07-22T12:52:40;2.65;;;1.00;;
13289;SDS011;6713;50.954;5.310;2023-07-22T12:55:06;1.67;;;1.20;;
13289;SDS011;6713;50.954;5.310;2023-07-22T12:57:33;1.52;;;1.15;;
13289;SDS011;6713;50.954;5.310;2023-07-22T12:59:59;1.73;;;1.20;;
13289;SDS011;6713;50.954;5.310;2023-07-22T13:02:27;6.27;;;1.30;;
13289;SDS011;6713;50.954;5.310;2023-07-22T13:04:53;2.80;;;1.70;;
13289;SDS011;6713;50.954;5.310;2023-07-22T13:07:19;4.17;;;1.53;;
13289;SDS011;6713;50.954;5.310;2023-07-22T13:09:46;3.13;;;1.27;;
13289;SDS011;6713;50.954;5.310;2023-07-22T13:12:14;2.87;;;1.47;;
13289;SDS011;6713;50.954;5.310;2023-07-22T13:14:40;2.20;;;1.60;;
13289;SDS011;6713;50.954;5.310;2023-07-22T13:17:06;3.80;;;1.93;;
13289;SDS011;6713;50.954;5.310;2023-07-22T13:19:34;1.60;;;1.20;;
13289;SDS011;6713;50.954;5.310;2023-07-22T13:22:00;2.27;;;1.70;;
13289;SDS011;6713;50.954;5.310;2023-07-22T13:24:26;2.17;;;1.70;;
13289;SDS011;6713;50.954;5.310;2023-07-22T13:26:53;1.97;;;1.73;;
13289;SDS011;6713;50.954;5.310;2023-07-22T13:29:19;2.53;;;1.60;;
13289;SDS011;6713;50.954;5.310;2023-07-22T13:31:46;5.13;;;1.40;;
13289;SDS011;6713;50.954;5.310;2023-07-22T13:34:12;3.77;;;1.73;;
13289;SDS011;6713;50.954;5.310;2023-07-22T13:36:40;2.33;;;1.60;;
13289;SDS011;6713;50.954;5.310;2023-07-22T13:39:06;1.53;;;1.43;;
13289;SDS011;6713;50.954;5.310;2023-07-22T13:41:33;2.00;;;1.63;;
13289;SDS011;6713;50.954;5.310;2023-07-22T13:43:59;3.60;;;1.83;;
13289;SDS011;6713;50.954;5.310;2023-07-22T13:46:25;2.27;;;1.77;;
13289;SDS011;6713;50.954;5.310;2023-07-22T13:48:52;1.83;;;1.50;;
13289;SDS011;6713;50.954;5.310;2023-07-22T13:51:18;3.43;;;2.10;;
13289;SDS011;6713;50.954;5.310;2023-07-22T13:53:46;2.10;;;1.60;;
13289;SDS011;6713;50.954;5.310;2023-07-22T13:56:13;2.37;;;1.83;;
13289;SDS011;6713;50.954;5.310;2023-07-22T13:58:39;2.73;;;1.63;;
13289;SDS011;6713;50.954;5.310;2023-07-22T14:01:05;4.90;;;2.00;;
13289;SDS011;6713;50.954;5.310;2023-07-22T14:03:33;2.03;;;1.70;;
13289;SDS011;6713;50.954;5.310;2023-07-22T14:05:59;3.37;;;2.30;;
13289;SDS011;6713;50.954;5.310;2023-07-22T14:08:26;2.57;;;1.50;;
13289;SDS011;6713;50.954;5.310;2023-07-22T14:10:53;3.10;;;1.97;;
13289;SDS011;6713;50.954;5.310;2023-07-22T14:13:20;2.23;;;1.50;;
13289;SDS011;6713;50.954;5.310;2023-07-22T14:15:46;2.20;;;1.63;;
13289;SDS011;6713;50.954;5.310;2023-07-22T14:18:12;2.80;;;1.60;;
13289;SDS011;6713;50.954;5.310;2023-07-22T14:20:42;7.30;;;1.93;;
13289;SDS011;6713;50.954;5.310;2023-07-22T14:23:08;3.73;;;1.97;;
13289;SDS011;6713;50.954;5.310;2023-07-22T14:25:34;2.63;;;1.37;;
13289;SDS011;6713;50.954;5.310;2023-07-22T14:28:02;7.33;;;1.60;;
13289;SDS011;6713;50.954;5.310;2023-07-22T14:30:28;5.07;;;1.70;;
13289;SDS011;6713;50.954;5.310;2023-07-22T14:32:55;1.87;;;1.47;;
13289;SDS011;6713;50.954;5.310;2023-07-22T14:35:21;2.50;;;1.47;;
13289;SDS011;6713;50.954;5.310;2023-07-22T14:37:48;3.30;;;1.40;;
13289;SDS011;6713;50.954;5.310;2023-07-22T14:40:14;2.87;;;1.50;;
13289;SDS011;6713;50.954;5.310;2023-07-22T14:42:41;2.80;;;1.40;;
13289;SDS011;6713;50.954;5.310;2023-07-22T14:45:09;1.23;;;1.10;;
13289;SDS011;6713;50.954;5.310;2023-07-22T14:47:35;2.40;;;1.00;;
13289;SDS011;6713;50.954;5.310;2023-07-22T14:50:01;3.78;;;1.40;;
13289;SDS011;6713;50.954;5.310;2023-07-22T14:52:28;1.90;;;1.30;;
13289;SDS011;6713;50.954;5.310;2023-07-22T14:54:54;1.10;;;1.00;;
13289;SDS011;6713;50.954;5.310;2023-07-22T14:57:21;2.20;;;0.90;;